createdAt,value
2022-10-28T00:01:03.784Z,16.08
2022-10-28T00:03:31.905Z,17.12
2022-10-28T00:06:05.012Z,16.67
2022-10-28T00:08:33.676Z,16.36
2022-10-28T00:11:07.035Z,16.95
2022-10-28T00:13:35.503Z,16.34
2022-10-28T00:16:08.968Z,17.24
2022-10-28T00:18:37.467Z,17.30
2022-10-28T00:21:09.136Z,16.30
2022-10-28T00:23:37.115Z,17.08
2022-10-28T00:26:06.976Z,16.85
2022-10-28T00:28:34.989Z,16.51
2022-10-28T00:31:07.426Z,17.47
2022-10-28T00:33:35.487Z,16.55
2022-10-28T00:36:16.420Z,17.45
2022-10-28T00:38:45.779Z,17.24
2022-10-28T00:41:16.141Z,16.25
2022-10-28T00:43:46.324Z,17.56
2022-10-28T00:46:20.677Z,17.23
2022-10-28T00:48:53.125Z,17.32
2022-10-28T00:51:25.284Z,17.61
2022-10-28T00:53:56.011Z,17.59
2022-10-28T00:56:27.478Z,16.98
2022-10-28T00:58:58.999Z,16.99
2022-10-28T01:01:27.084Z,17.49
2022-10-28T01:03:56.873Z,17.37
2022-10-28T01:06:29.063Z,16.87
2022-10-28T01:08:59.924Z,16.81
2022-10-28T01:11:43.287Z,17.63
2022-10-28T01:14:31.077Z,16.74
2022-10-28T01:17:18.458Z,17.22
2022-10-28T01:20:39.677Z,16.96
2022-10-28T01:23:17.342Z,16.92
2022-10-28T01:26:04.356Z,17.59
2022-10-28T01:29:03.431Z,17.57
2022-10-28T01:31:40.100Z,17.70
2022-10-28T01:34:15.116Z,17.70
2022-10-28T01:36:53.990Z,17.06
2022-10-28T01:39:29.985Z,17.46
2022-10-28T01:42:08.676Z,17.73
2022-10-28T01:44:46.429Z,16.63
2022-10-28T01:47:20.806Z,17.09
2022-10-28T01:49:52.210Z,17.71
2022-10-28T01:52:24.540Z,17.07
2022-10-28T01:55:02.403Z,17.15
2022-10-28T01:57:32.983Z,17.40
2022-10-28T02:00:02.775Z,17.08
2022-10-28T02:02:42.654Z,17.13
2022-10-28T02:05:39.268Z,17.68
2022-10-28T02:08:34.693Z,17.67
2022-10-28T02:11:17.049Z,17.70
2022-10-28T02:13:52.971Z,17.72
2022-10-28T02:16:29.209Z,16.62
2022-10-28T02:19:04.655Z,17.48
2022-10-28T02:21:44.643Z,17.07
2022-10-28T02:24:19.818Z,17.80
2022-10-28T02:26:54.998Z,17.73
2022-10-28T02:29:31.703Z,17.53
2022-10-28T02:32:04.112Z,17.75
2022-10-28T02:34:37.551Z,17.15
2022-10-28T02:37:12.454Z,17.26
2022-10-28T02:39:44.223Z,17.72
2022-10-28T02:42:16.531Z,17.93
2022-10-28T02:44:49.694Z,17.96
2022-10-28T02:47:21.831Z,17.50
2022-10-28T02:49:56.389Z,16.92
2022-10-28T02:52:29.532Z,16.76
2022-10-28T02:55:00.422Z,17.64
2022-10-28T02:57:32.447Z,17.08
2022-10-28T03:00:02.327Z,17.88
2022-10-28T03:02:30.281Z,17.86
2022-10-28T03:04:59.520Z,17.84
2022-10-28T03:07:27.481Z,16.66
2022-10-28T03:09:55.567Z,17.24
2022-10-28T03:12:23.562Z,17.81
2022-10-28T03:14:51.546Z,16.90
2022-10-28T03:17:19.511Z,17.73
2022-10-28T03:19:47.378Z,17.37
2022-10-28T03:22:16.893Z,16.47
2022-10-28T03:24:44.768Z,16.95
2022-10-28T03:27:13.995Z,16.73
2022-10-28T03:29:45.010Z,17.05
2022-10-28T03:32:14.506Z,16.87
2022-10-28T03:34:42.463Z,16.84
2022-10-28T03:37:10.732Z,16.53
2022-10-28T03:39:40.390Z,16.38
2022-10-28T03:42:08.362Z,16.82
2022-10-28T03:44:36.244Z,16.90
2022-10-28T03:47:04.262Z,16.81
2022-10-28T03:49:32.155Z,16.84
2022-10-28T03:52:00.089Z,16.55
2022-10-28T03:54:27.889Z,16.58
2022-10-28T03:56:57.140Z,16.36
2022-10-28T03:59:25.131Z,16.06
2022-10-28T04:01:53.118Z,16.72
2022-10-28T04:04:21.489Z,16.15
2022-10-28T04:06:49.361Z,15.96
2022-10-28T04:09:17.245Z,16.14
2022-10-28T04:11:45.277Z,16.59
2022-10-28T04:14:14.690Z,16.28
2022-10-28T04:16:42.552Z,16.37
2022-10-28T04:19:10.472Z,16.33
2022-10-28T04:21:38.372Z,16.45
2022-10-28T04:24:07.186Z,16.44
2022-10-28T04:26:35.203Z,15.34
2022-10-28T04:29:03.072Z,16.42
2022-10-28T04:31:32.369Z,16.32
2022-10-28T04:34:00.279Z,16.13
2022-10-28T04:36:28.085Z,16.33
2022-10-28T04:38:56.086Z,16.28
2022-10-28T04:41:23.977Z,16.13
2022-10-28T04:43:51.800Z,15.85
2022-10-28T04:46:19.640Z,16.15
2022-10-28T04:48:49.380Z,16.08
2022-10-28T04:51:17.431Z,16.13
2022-10-28T04:53:45.451Z,15.51
2022-10-28T04:56:13.416Z,15.36
2022-10-28T04:58:42.259Z,15.96
2022-10-28T05:01:11.860Z,15.92
2022-10-28T05:03:40.057Z,15.53
2022-10-28T05:06:09.420Z,15.50
2022-10-28T05:08:37.315Z,14.85
2022-10-28T05:11:05.392Z,15.42
2022-10-28T05:13:33.634Z,15.33
2022-10-28T05:16:01.798Z,15.67
2022-10-28T05:18:29.698Z,15.03
2022-10-28T05:20:57.641Z,15.63
2022-10-28T05:23:27.323Z,15.22
2022-10-28T05:25:58.120Z,13.95
2022-10-28T05:28:26.091Z,15.22
2022-10-28T05:30:54.012Z,14.95
2022-10-28T05:33:21.937Z,15.28
2022-10-28T05:35:49.909Z,15.10
2022-10-28T05:38:18.038Z,15.03
2022-10-28T05:40:47.406Z,14.76
2022-10-28T05:43:15.365Z,14.37
2022-10-28T05:45:43.224Z,14.98
2022-10-28T05:48:11.102Z,14.97
2022-10-28T05:50:38.963Z,14.86
2022-10-28T05:53:06.793Z,14.86
2022-10-28T05:55:35.296Z,14.78
2022-10-28T05:58:04.527Z,14.97
2022-10-28T06:00:33.031Z,14.90
2022-10-28T06:03:09.148Z,15.13
2022-10-28T06:05:37.292Z,15.06
2022-10-28T06:08:06.220Z,14.30
2022-10-28T06:10:34.577Z,14.89
2022-10-28T06:13:02.234Z,15.07
2022-10-28T06:15:30.302Z,14.97
2022-10-28T06:17:58.360Z,14.77
2022-10-28T06:20:26.460Z,14.82
2022-10-28T06:22:55.465Z,15.13
2022-10-28T06:25:25.600Z,15.15
2022-10-28T06:27:54.625Z,15.18
2022-10-28T06:30:25.265Z,15.03
2022-10-28T06:32:56.472Z,15.22
2022-10-28T06:35:24.324Z,13.87
2022-10-28T06:37:53.958Z,15.01
2022-10-28T06:40:22.210Z,14.37
2022-10-28T06:42:56.816Z,15.32
2022-10-28T06:45:26.481Z,14.55
2022-10-28T06:47:57.441Z,15.58
2022-10-28T06:50:25.417Z,15.48
2022-10-28T06:52:53.743Z,15.31
2022-10-28T06:55:21.591Z,15.24
2022-10-28T06:57:49.528Z,15.91
2022-10-28T07:00:17.966Z,15.57
2022-10-28T07:02:51.877Z,15.78
2022-10-28T07:05:19.981Z,15.25
2022-10-28T07:07:47.839Z,15.63
2022-10-28T07:10:16.173Z,15.40
2022-10-28T07:12:44.091Z,15.25
2022-10-28T07:15:12.564Z,15.62
2022-10-28T07:17:40.554Z,15.70
2022-10-28T07:20:11.464Z,15.56
2022-10-28T07:22:39.305Z,15.42
2022-10-28T07:25:08.225Z,15.17
2022-10-28T07:27:36.191Z,16.08
2022-10-28T07:30:04.146Z,16.14
2022-10-28T07:32:32.874Z,16.31
2022-10-28T07:35:00.704Z,15.91
2022-10-28T07:37:31.073Z,16.58
2022-10-28T07:39:58.935Z,16.36
2022-10-28T07:42:26.954Z,16.49
2022-10-28T07:44:54.736Z,15.85
2022-10-28T07:47:22.574Z,16.16
2022-10-28T07:49:50.387Z,17.03
2022-10-28T07:52:18.465Z,16.90
2022-10-28T07:54:47.922Z,17.16
2022-10-28T07:57:15.717Z,16.61
2022-10-28T07:59:43.509Z,17.02
2022-10-28T08:02:17.517Z,17.36
2022-10-28T08:04:45.575Z,16.80
2022-10-28T08:07:14.016Z,17.22
2022-10-28T08:09:42.291Z,17.41
2022-10-28T08:12:14.717Z,17.00
2022-10-28T08:14:43.238Z,17.64
2022-10-28T08:17:11.142Z,17.25
2022-10-28T08:19:38.948Z,17.42
2022-10-28T08:22:07.739Z,17.78
2022-10-28T08:24:36.576Z,18.29
2022-10-28T08:27:04.591Z,18.63
2022-10-28T08:29:33.912Z,19.15
2022-10-28T08:32:01.888Z,19.43
2022-10-28T08:34:30.941Z,18.68
2022-10-28T08:36:58.968Z,18.99
2022-10-28T08:39:26.794Z,18.60
2022-10-28T08:42:08.820Z,18.55
2022-10-28T08:44:57.947Z,19.31
2022-10-28T08:47:39.308Z,20.24
2022-10-28T08:50:14.299Z,19.96
2022-10-28T08:52:48.727Z,20.61
2022-10-28T08:55:21.881Z,20.74
2022-10-28T08:57:53.890Z,21.85
2022-10-28T09:00:25.523Z,21.68
2022-10-28T09:03:18.276Z,22.74
2022-10-28T09:05:49.953Z,22.38
2022-10-28T09:08:24.505Z,23.83
2022-10-28T09:11:04.619Z,24.05
2022-10-28T09:13:47.111Z,24.72
2022-10-28T09:16:30.605Z,27.01
2022-10-28T09:19:04.054Z,26.65
2022-10-28T09:21:37.656Z,27.36
2022-10-28T09:24:18.571Z,28.39
2022-10-28T09:26:55.445Z,29.32
2022-10-28T09:29:54.890Z,29.75
2022-10-28T09:32:35.131Z,29.74
2022-10-28T09:35:07.344Z,30.22
2022-10-28T09:37:40.923Z,28.29
2022-10-28T09:40:18.550Z,29.59
2022-10-28T09:42:56.173Z,29.21
2022-10-28T09:45:32.521Z,29.73
2022-10-28T09:48:09.730Z,30.14
2022-10-28T09:50:40.627Z,30.08
2022-10-28T09:53:20.567Z,30.37
2022-10-28T09:55:55.937Z,30.61
2022-10-28T09:58:30.006Z,29.46
2022-10-28T10:01:00.420Z,29.72
2022-10-28T10:03:32.973Z,27.77
2022-10-28T10:06:15.189Z,28.09
2022-10-28T10:08:44.608Z,29.38
2022-10-28T10:11:23.388Z,29.48
2022-10-28T10:13:52.707Z,32.33
2022-10-28T10:16:26.100Z,32.64
2022-10-28T10:19:01.894Z,32.25
2022-10-28T10:21:45.621Z,31.62
2022-10-28T10:24:27.091Z,31.07
2022-10-28T10:26:55.470Z,31.96
2022-10-28T10:29:23.642Z,33.75
2022-10-28T10:32:09.834Z,35.35
2022-10-28T10:34:39.149Z,36.89
2022-10-28T10:37:17.444Z,36.74
2022-10-28T10:39:45.209Z,35.44
2022-10-28T10:42:17.971Z,35.52
2022-10-28T10:44:46.246Z,33.88
2022-10-28T10:47:20.867Z,31.32
2022-10-28T10:50:22.968Z,31.23
2022-10-28T10:52:53.806Z,30.14
2022-10-28T10:55:30.465Z,28.62
2022-10-28T10:57:58.891Z,27.54
2022-10-28T11:00:32.119Z,28.55
2022-10-28T11:03:01.956Z,28.30
2022-10-28T11:05:35.913Z,28.32
2022-10-28T11:08:07.731Z,29.00
2022-10-28T11:10:36.356Z,29.83
2022-10-28T11:13:26.602Z,31.10
2022-10-28T11:16:00.687Z,31.30
2022-10-28T11:18:31.650Z,31.52
2022-10-28T11:21:08.510Z,31.80
2022-10-28T11:23:50.192Z,32.24
2022-10-28T11:26:20.512Z,32.64
2022-10-28T11:29:10.883Z,34.10
2022-10-28T11:31:57.665Z,36.37
2022-10-28T11:34:41.621Z,38.39
2022-10-28T11:37:19.891Z,38.76
2022-10-28T11:39:59.390Z,39.00
2022-10-28T11:42:39.051Z,39.02
2022-10-28T11:45:14.520Z,38.09
2022-10-28T11:47:57.119Z,37.08
2022-10-28T11:50:36.609Z,35.78
2022-10-28T11:53:28.832Z,33.92
2022-10-28T11:56:04.664Z,32.47
2022-10-28T11:58:42.157Z,32.94
2022-10-28T12:01:29.799Z,33.45
2022-10-28T12:04:13.348Z,33.14
2022-10-28T12:07:01.441Z,33.26
2022-10-28T12:09:45.698Z,33.36
2022-10-28T12:12:24.413Z,34.46
2022-10-28T12:15:01.592Z,34.63
2022-10-28T12:17:38.247Z,34.01
2022-10-28T12:20:15.897Z,34.83
2022-10-28T12:22:49.122Z,35.83
2022-10-28T12:25:24.292Z,36.78
2022-10-28T12:27:55.644Z,37.46
2022-10-28T12:30:27.350Z,37.88
2022-10-28T12:33:00.200Z,38.22
2022-10-28T12:35:33.166Z,37.65
2022-10-28T12:38:07.503Z,36.71
2022-10-28T12:40:42.588Z,35.40
2022-10-28T12:43:17.131Z,34.27
2022-10-28T12:45:49.272Z,33.21
2022-10-28T12:48:23.682Z,31.48
2022-10-28T12:51:00.083Z,30.61
2022-10-28T12:53:35.556Z,29.79
2022-10-28T12:56:13.207Z,29.11
2022-10-28T12:58:52.277Z,29.47
2022-10-28T13:01:24.340Z,28.55
2022-10-28T13:03:52.843Z,29.46
2022-10-28T13:06:48.688Z,27.93
2022-10-28T13:09:39.156Z,28.78
2022-10-28T13:12:50.551Z,29.03
2022-10-28T13:15:40.249Z,28.26
2022-10-28T13:18:38.212Z,28.38
2022-10-28T13:21:17.812Z,27.34
2022-10-28T13:23:55.686Z,27.72
2022-10-28T13:26:29.675Z,26.47
2022-10-28T13:29:00.848Z,26.53
2022-10-28T13:31:41.125Z,27.02
2022-10-28T13:34:10.558Z,25.39
2022-10-28T13:36:42.827Z,26.01
2022-10-28T13:39:24.562Z,25.74
2022-10-28T13:42:25.607Z,27.12
2022-10-28T13:44:55.370Z,25.67
2022-10-28T13:47:34.445Z,26.91
2022-10-28T13:50:42.117Z,26.81
2022-10-28T13:53:55.289Z,26.27
2022-10-28T13:56:42.472Z,26.53
2022-10-28T13:59:22.639Z,25.43
2022-10-28T14:02:28.476Z,26.26
2022-10-28T14:04:58.656Z,25.65
2022-10-28T14:07:30.205Z,24.58
2022-10-28T14:10:17.614Z,23.40
2022-10-28T14:12:51.724Z,24.14
2022-10-28T14:15:24.294Z,23.98
2022-10-28T14:18:00.994Z,24.70
2022-10-28T14:20:54.851Z,24.20
2022-10-28T14:24:16.600Z,24.87
2022-10-28T14:27:30.758Z,24.70
2022-10-28T14:30:24.167Z,24.57
2022-10-28T14:33:04.111Z,23.56
2022-10-28T14:35:40.243Z,24.35
2022-10-28T14:38:42.039Z,24.22
2022-10-28T14:41:35.580Z,23.21
2022-10-28T14:44:17.348Z,22.66
2022-10-28T14:46:57.294Z,23.28
2022-10-28T14:49:27.343Z,23.05
2022-10-28T14:51:56.074Z,23.95
2022-10-28T14:54:39.792Z,23.90
2022-10-28T14:57:11.394Z,23.47
2022-10-28T14:59:43.200Z,21.33
2022-10-28T15:02:17.559Z,23.57
2022-10-28T15:04:48.414Z,22.28
2022-10-28T15:07:19.325Z,22.94
2022-10-28T15:09:53.455Z,22.15
2022-10-28T15:12:26.664Z,22.12
2022-10-28T15:14:56.448Z,21.80
2022-10-28T15:17:26.363Z,22.84
2022-10-28T15:19:56.073Z,20.98
2022-10-28T15:22:25.785Z,21.60
2022-10-28T15:24:59.256Z,21.60
2022-10-28T15:27:30.470Z,22.47
2022-10-28T15:29:58.589Z,21.28
2022-10-28T15:32:29.653Z,22.12
2022-10-28T15:34:57.714Z,19.92
2022-10-28T15:37:27.932Z,21.62
2022-10-28T15:40:13.717Z,21.65
2022-10-28T15:42:51.362Z,20.04
2022-10-28T15:45:25.583Z,18.24
2022-10-28T15:47:55.342Z,19.52
2022-10-28T15:50:32.995Z,21.03
2022-10-28T15:53:37.722Z,20.88
2022-10-28T15:56:17.639Z,20.24
2022-10-28T15:58:49.993Z,20.58
2022-10-28T16:01:37.978Z,20.24
2022-10-28T16:04:06.706Z,20.09
2022-10-28T16:06:37.243Z,20.15
2022-10-28T16:09:18.206Z,19.44
2022-10-28T16:11:49.305Z,18.81
2022-10-28T16:14:36.827Z,19.77
2022-10-28T16:19:38.744Z,19.47
2022-10-28T16:22:07.509Z,18.73
2022-10-28T16:24:35.660Z,18.47
2022-10-28T16:27:22.942Z,19.11
2022-10-28T16:29:52.765Z,18.45
2022-10-28T16:32:27.690Z,17.77
2022-10-28T16:34:56.994Z,18.24
2022-10-28T16:37:27.583Z,18.28
2022-10-28T16:39:57.670Z,18.10
2022-10-28T16:42:26.177Z,18.52
2022-10-28T16:44:55.454Z,18.37
2022-10-28T16:47:26.598Z,16.75
2022-10-28T16:49:57.362Z,17.67
2022-10-28T16:52:27.511Z,18.15
2022-10-28T16:54:55.753Z,16.99
2022-10-28T16:59:52.158Z,17.54
2022-10-28T17:02:25.449Z,17.79
2022-10-28T17:04:53.601Z,17.15
2022-10-28T17:07:21.507Z,17.08
2022-10-28T17:09:49.390Z,17.19
2022-10-28T17:12:19.230Z,16.61
2022-10-28T17:14:47.318Z,15.66
2022-10-28T17:17:16.089Z,16.88
2022-10-28T17:19:46.477Z,16.81
2022-10-28T17:22:15.173Z,17.32
2022-10-28T17:24:43.110Z,15.62
2022-10-28T17:27:10.915Z,17.22
2022-10-28T17:29:38.939Z,15.84
2022-10-28T17:32:08.572Z,16.97
2022-10-28T17:34:36.579Z,14.32
2022-10-28T17:37:06.034Z,16.59
2022-10-28T17:39:34.083Z,16.24
2022-10-28T17:42:01.928Z,16.02
2022-10-28T17:44:29.750Z,16.53
2022-10-28T17:46:58.366Z,12.94
2022-10-28T17:49:26.406Z,15.13
2022-10-28T17:51:54.676Z,16.26
2022-10-28T17:56:51.926Z,15.07
2022-10-28T17:59:19.849Z,16.14
2022-10-28T18:01:47.804Z,16.64
2022-10-28T18:04:15.858Z,15.92
2022-10-28T18:06:43.879Z,16.42
2022-10-28T18:09:12.728Z,14.41
2022-10-28T18:11:42.048Z,15.83
2022-10-28T18:14:09.869Z,15.08
2022-10-28T18:16:38.437Z,13.53
2022-10-28T18:19:07.711Z,16.26
2022-10-28T18:21:36.112Z,15.10
2022-10-28T18:24:07.196Z,14.82
2022-10-28T18:26:36.763Z,15.48
2022-10-28T18:29:09.881Z,16.06
2022-10-28T18:31:40.510Z,14.37
2022-10-28T18:34:09.493Z,15.14
2022-10-28T18:36:37.912Z,15.94
2022-10-28T18:39:07.785Z,15.19
2022-10-28T18:41:38.327Z,15.40
2022-10-28T18:44:07.577Z,15.79
2022-10-28T18:46:37.513Z,15.28
2022-10-28T18:49:06.228Z,15.72
2022-10-28T18:51:35.180Z,15.69
2022-10-28T18:54:03.547Z,15.10
2022-10-28T18:56:31.662Z,15.48
2022-10-28T18:58:59.984Z,14.91
2022-10-28T19:01:31.603Z,15.74
2022-10-28T19:04:01.598Z,14.70
2022-10-28T19:06:32.434Z,15.74
2022-10-28T19:09:02.610Z,14.10
2022-10-28T19:11:31.679Z,14.43
2022-10-28T19:14:00.474Z,15.30
2022-10-28T19:16:31.881Z,14.99
2022-10-28T19:19:02.482Z,14.53
2022-10-28T19:21:30.438Z,15.55
2022-10-28T19:23:58.276Z,15.51
2022-10-28T19:26:26.192Z,15.10
2022-10-28T19:28:54.170Z,14.40
2022-10-28T19:31:24.891Z,15.48
2022-10-28T19:33:55.163Z,14.40
2022-10-28T19:36:25.015Z,13.69
2022-10-28T19:38:54.364Z,15.06
2022-10-28T19:41:24.488Z,15.34
2022-10-28T19:43:57.842Z,14.72
2022-10-28T19:46:27.710Z,15.29
2022-10-28T19:48:59.529Z,15.29
2022-10-28T19:51:29.330Z,14.72
2022-10-28T19:53:58.593Z,14.74
2022-10-28T19:56:27.416Z,15.22
2022-10-28T19:58:57.760Z,13.22
2022-10-28T20:01:28.735Z,14.85
2022-10-28T20:03:58.228Z,13.97
2022-10-28T20:06:27.991Z,13.86
2022-10-28T20:08:55.829Z,15.08
2022-10-28T20:11:26.604Z,15.08
2022-10-28T20:13:55.275Z,14.53
2022-10-28T20:16:23.788Z,15.04
2022-10-28T20:18:51.776Z,13.66
2022-10-28T20:21:22.939Z,14.52
2022-10-28T20:23:54.572Z,14.97
2022-10-28T20:26:24.473Z,13.46
2022-10-28T20:28:52.679Z,13.66
2022-10-28T20:31:22.362Z,14.58
2022-10-28T20:33:52.788Z,13.97
2022-10-28T20:36:25.513Z,13.75
2022-10-28T20:38:57.590Z,14.97
2022-10-28T20:41:26.604Z,14.94
2022-10-28T20:43:55.437Z,14.92
2022-10-28T20:46:25.614Z,14.89
2022-10-28T20:48:54.596Z,14.22
2022-10-28T20:51:25.714Z,14.37
2022-10-28T20:53:54.539Z,14.38
2022-10-28T20:56:24.387Z,14.86
2022-10-28T20:58:53.041Z,14.83
2022-10-28T21:01:22.995Z,14.14
2022-10-28T21:03:54.877Z,12.94
2022-10-28T21:06:25.614Z,14.37
2022-10-28T21:08:54.570Z,14.13
2022-10-28T21:11:23.899Z,13.49
2022-10-28T21:13:53.545Z,14.72
2022-10-28T21:16:22.905Z,13.57
2022-10-28T21:18:51.610Z,13.48
2022-10-28T21:21:20.271Z,14.27
2022-10-28T21:23:49.881Z,13.62
2022-10-28T21:26:18.038Z,13.51
2022-10-28T21:28:49.873Z,14.62
2022-10-28T21:31:18.785Z,14.58
2022-10-28T21:33:47.465Z,14.55
2022-10-28T21:36:17.282Z,14.48
2022-10-28T21:38:46.184Z,13.37
2022-10-28T21:41:17.140Z,12.91
2022-10-28T21:43:47.673Z,13.29
2022-10-28T21:46:16.093Z,14.49
2022-10-28T21:48:46.770Z,14.47
2022-10-28T21:51:16.946Z,14.45
2022-10-28T21:53:45.785Z,14.43
2022-10-28T21:56:18.776Z,14.43
2022-10-28T21:58:49.061Z,12.91
2022-10-28T22:01:19.008Z,13.12
2022-10-28T22:03:46.907Z,14.39
2022-10-28T22:06:15.240Z,14.34
2022-10-28T22:08:43.143Z,14.28
2022-10-28T22:11:13.607Z,12.95
2022-10-28T22:13:43.087Z,12.85
2022-10-28T22:16:15.359Z,12.80
2022-10-28T22:18:44.535Z,13.84
2022-10-28T22:21:14.907Z,14.11
2022-10-28T22:23:43.452Z,13.54
2022-10-28T22:26:13.739Z,13.44
2022-10-28T22:28:43.654Z,12.79
2022-10-28T22:31:13.471Z,12.72
2022-10-28T22:33:41.544Z,13.94
2022-10-28T22:36:13.295Z,12.17
2022-10-28T22:38:41.890Z,12.97
2022-10-28T22:41:14.288Z,13.84
2022-10-28T22:43:45.118Z,13.05
2022-10-28T22:46:14.888Z,13.49
2022-10-28T22:48:42.736Z,13.56
2022-10-28T22:51:11.181Z,13.80
2022-10-28T22:53:39.848Z,13.32
2022-10-28T22:56:09.443Z,13.49
2022-10-28T22:58:37.551Z,11.84
2022-10-28T23:01:07.939Z,12.82
2022-10-28T23:03:37.000Z,11.83
2022-10-28T23:06:05.479Z,13.73
2022-10-28T23:08:33.705Z,13.42
2022-10-28T23:11:01.702Z,13.69
2022-10-28T23:13:29.570Z,13.66
2022-10-28T23:15:57.459Z,13.52
2022-10-28T23:18:28.910Z,11.49
2022-10-28T23:20:56.750Z,13.57
2022-10-28T23:23:24.715Z,13.55
2022-10-28T23:25:53.629Z,13.52
2022-10-28T23:28:21.795Z,12.85
2022-10-28T23:30:49.655Z,13.45
2022-10-28T23:33:17.540Z,12.98
2022-10-28T23:35:54.995Z,12.23
2022-10-28T23:38:23.015Z,11.85
2022-10-28T23:40:58.386Z,13.34
2022-10-28T23:43:26.879Z,13.33
2022-10-28T23:45:55.815Z,13.33
2022-10-28T23:48:24.254Z,13.34
2022-10-28T23:50:53.878Z,12.91
2022-10-28T23:53:22.707Z,12.77
2022-10-28T23:55:51.607Z,13.35
2022-10-28T23:58:20.958Z,12.38
